sensor_id;sensor_type;location;lat;lon;timestamp;P1;durP1;ratioP1;P2;durP2;ratioP2
14550;SDS011;7362;50.956;4.184;2022-09-09T00:18:24;2.00;;;0.80;;
14550;SDS011;7362;50.956;4.184;2022-09-09T00:21:15;5.18;;;1.20;;
14550;SDS011;7362;50.956;4.184;2022-09-09T00:23:55;3.20;;;1.55;;
14550;SDS011;7362;50.956;4.184;2022-09-09T00:26:23;2.67;;;1.23;;
14550;SDS011;7362;50.956;4.184;2022-09-09T00:31:40;2.35;;;1.27;;
14550;SDS011;7362;50.956;4.184;2022-09-09T00:34:14;4.00;;;1.10;;
14550;SDS011;7362;50.956;4.184;2022-09-09T00:36:43;2.17;;;1.00;;
14550;SDS011;7362;50.956;4.184;2022-09-09T00:39:19;3.83;;;1.08;;
14550;SDS011;7362;50.956;4.184;2022-09-09T00:44:45;4.43;;;1.02;;
14550;SDS011;7362;50.956;4.184;2022-09-09T00:53:14;2.92;;;0.98;;
14550;SDS011;7362;50.956;4.184;2022-09-09T00:55:54;3.45;;;0.93;;
14550;SDS011;7362;50.956;4.184;2022-09-09T00:58:30;2.45;;;0.90;;
14550;SDS011;7362;50.956;4.184;2022-09-09T01:03:38;1.98;;;1.13;;
14550;SDS011;7362;50.956;4.184;2022-09-09T01:08:58;4.90;;;1.35;;
14550;SDS011;7362;50.956;4.184;2022-09-09T01:12:14;3.40;;;1.08;;
14550;SDS011;7362;50.956;4.184;2022-09-09T01:15:43;5.45;;;1.38;;
14550;SDS011;7362;50.956;4.184;2022-09-09T01:18:23;2.65;;;0.85;;
14550;SDS011;7362;50.956;4.184;2022-09-09T01:26:41;3.30;;;1.25;;
14550;SDS011;7362;50.956;4.184;2022-09-09T01:29:09;2.67;;;0.90;;
14550;SDS011;7362;50.956;4.184;2022-09-09T01:31:42;3.05;;;1.08;;
14550;SDS011;7362;50.956;4.184;2022-09-09T01:34:31;5.82;;;1.13;;
14550;SDS011;7362;50.956;4.184;2022-09-09T01:37:08;2.17;;;0.98;;
14550;SDS011;7362;50.956;4.184;2022-09-09T01:39:36;3.05;;;1.40;;
14550;SDS011;7362;50.956;4.184;2022-09-09T01:42:04;5.22;;;1.30;;
14550;SDS011;7362;50.956;4.184;2022-09-09T01:44:32;3.13;;;1.23;;
14550;SDS011;7362;50.956;4.184;2022-09-09T01:47:01;5.93;;;1.67;;
14550;SDS011;7362;50.956;4.184;2022-09-09T01:49:27;3.35;;;1.13;;
14550;SDS011;7362;50.956;4.184;2022-09-09T01:51:54;5.28;;;1.30;;
14550;SDS011;7362;50.956;4.184;2022-09-09T01:54:21;1.83;;;0.93;;
14550;SDS011;7362;50.956;4.184;2022-09-09T02:02:22;4.43;;;1.67;;
14550;SDS011;7362;50.956;4.184;2022-09-09T02:08:23;2.78;;;1.40;;
14550;SDS011;7362;50.956;4.184;2022-09-09T02:11:13;4.40;;;1.52;;
14550;SDS011;7362;50.956;4.184;2022-09-09T02:13:47;3.40;;;1.65;;
14550;SDS011;7362;50.956;4.184;2022-09-09T02:19:06;5.82;;;1.42;;
14550;SDS011;7362;50.956;4.184;2022-09-09T02:22:01;3.42;;;1.02;;
14550;SDS011;7362;50.956;4.184;2022-09-09T02:24:29;7.35;;;2.10;;
14550;SDS011;7362;50.956;4.184;2022-09-09T02:26:58;5.05;;;1.33;;
14550;SDS011;7362;50.956;4.184;2022-09-09T02:29:27;4.85;;;1.50;;
14550;SDS011;7362;50.956;4.184;2022-09-09T02:31:57;2.90;;;1.38;;
14550;SDS011;7362;50.956;4.184;2022-09-09T02:34:28;5.25;;;1.40;;
14550;SDS011;7362;50.956;4.184;2022-09-09T02:36:57;6.43;;;2.03;;
14550;SDS011;7362;50.956;4.184;2022-09-09T02:39:24;7.03;;;1.70;;
14550;SDS011;7362;50.956;4.184;2022-09-09T02:41:50;4.95;;;1.48;;
14550;SDS011;7362;50.956;4.184;2022-09-09T02:44:18;6.38;;;1.80;;
14550;SDS011;7362;50.956;4.184;2022-09-09T02:52:20;15.93;;;1.80;;
14550;SDS011;7362;50.956;4.184;2022-09-09T02:55:21;2.92;;;1.30;;
14550;SDS011;7362;50.956;4.184;2022-09-09T02:57:55;5.47;;;1.50;;
14550;SDS011;7362;50.956;4.184;2022-09-09T03:00:26;4.82;;;1.80;;
14550;SDS011;7362;50.956;4.184;2022-09-09T03:08:06;5.93;;;1.75;;
14550;SDS011;7362;50.956;4.184;2022-09-09T03:10:33;5.13;;;1.52;;
14550;SDS011;7362;50.956;4.184;2022-09-09T03:12:59;3.65;;;1.50;;
14550;SDS011;7362;50.956;4.184;2022-09-09T03:15:25;4.25;;;1.52;;
14550;SDS011;7362;50.956;4.184;2022-09-09T03:17:57;4.07;;;1.27;;
14550;SDS011;7362;50.956;4.184;2022-09-09T03:20:24;5.10;;;1.65;;
14550;SDS011;7362;50.956;4.184;2022-09-09T03:22:51;7.63;;;1.92;;
14550;SDS011;7362;50.956;4.184;2022-09-09T03:25:19;5.22;;;1.45;;
14550;SDS011;7362;50.956;4.184;2022-09-09T03:27:49;2.83;;;1.40;;
14550;SDS011;7362;50.956;4.184;2022-09-09T03:30:18;5.75;;;1.73;;
14550;SDS011;7362;50.956;4.184;2022-09-09T03:32:43;4.88;;;1.55;;
14550;SDS011;7362;50.956;4.184;2022-09-09T03:35:09;6.20;;;1.67;;
14550;SDS011;7362;50.956;4.184;2022-09-09T03:37:35;4.75;;;2.00;;
14550;SDS011;7362;50.956;4.184;2022-09-09T03:40:01;4.88;;;1.48;;
14550;SDS011;7362;50.956;4.184;2022-09-09T03:42:27;3.72;;;2.03;;
14550;SDS011;7362;50.956;4.184;2022-09-09T03:44:52;8.35;;;1.88;;
14550;SDS011;7362;50.956;4.184;2022-09-09T03:47:20;4.93;;;1.65;;
14550;SDS011;7362;50.956;4.184;2022-09-09T03:49:49;3.08;;;1.25;;
14550;SDS011;7362;50.956;4.184;2022-09-09T03:52:15;6.03;;;1.80;;
14550;SDS011;7362;50.956;4.184;2022-09-09T03:54:41;8.25;;;2.13;;
14550;SDS011;7362;50.956;4.184;2022-09-09T03:57:08;5.20;;;1.80;;
14550;SDS011;7362;50.956;4.184;2022-09-09T03:59:35;4.78;;;1.65;;
14550;SDS011;7362;50.956;4.184;2022-09-09T04:02:02;5.93;;;1.90;;
14550;SDS011;7362;50.956;4.184;2022-09-09T04:04:31;7.50;;;2.75;;
14550;SDS011;7362;50.956;4.184;2022-09-09T04:06:57;3.20;;;1.52;;
14550;SDS011;7362;50.956;4.184;2022-09-09T04:09:23;3.40;;;1.38;;
14550;SDS011;7362;50.956;4.184;2022-09-09T04:11:48;8.35;;;2.42;;
14550;SDS011;7362;50.956;4.184;2022-09-09T04:14:14;7.35;;;2.10;;
14550;SDS011;7362;50.956;4.184;2022-09-09T04:16:41;7.93;;;2.05;;
14550;SDS011;7362;50.956;4.184;2022-09-09T04:19:10;6.13;;;1.90;;
14550;SDS011;7362;50.956;4.184;2022-09-09T04:30:08;5.07;;;1.58;;
14550;SDS011;7362;50.956;4.184;2022-09-09T04:32:37;9.45;;;2.13;;
14550;SDS011;7362;50.956;4.184;2022-09-09T04:35:06;4.03;;;1.67;;
14550;SDS011;7362;50.956;4.184;2022-09-09T04:45:49;6.78;;;2.03;;
14550;SDS011;7362;50.956;4.184;2022-09-09T04:51:26;7.65;;;2.60;;
14550;SDS011;7362;50.956;4.184;2022-09-09T04:53:56;5.72;;;2.33;;
14550;SDS011;7362;50.956;4.184;2022-09-09T04:59:44;5.30;;;2.08;;
14550;SDS011;7362;50.956;4.184;2022-09-09T05:02:11;10.30;;;2.72;;
14550;SDS011;7362;50.956;4.184;2022-09-09T05:04:38;5.15;;;2.47;;
14550;SDS011;7362;50.956;4.184;2022-09-09T05:07:08;8.77;;;2.30;;
14550;SDS011;7362;50.956;4.184;2022-09-09T05:12:32;8.27;;;2.08;;
14550;SDS011;7362;50.956;4.184;2022-09-09T05:17:32;6.18;;;2.22;;
14550;SDS011;7362;50.956;4.184;2022-09-09T05:25:38;10.27;;;3.42;;
14550;SDS011;7362;50.956;4.184;2022-09-09T05:28:11;7.15;;;2.28;;
14550;SDS011;7362;50.956;4.184;2022-09-09T05:30:37;5.97;;;2.13;;
14550;SDS011;7362;50.956;4.184;2022-09-09T05:33:02;6.28;;;2.22;;
14550;SDS011;7362;50.956;4.184;2022-09-09T05:35:28;8.63;;;2.30;;
14550;SDS011;7362;50.956;4.184;2022-09-09T05:38:01;8.68;;;2.53;;
14550;SDS011;7362;50.956;4.184;2022-09-09T05:40:28;6.07;;;1.88;;
14550;SDS011;7362;50.956;4.184;2022-09-09T05:42:55;6.57;;;2.20;;
14550;SDS011;7362;50.956;4.184;2022-09-09T05:45:25;7.65;;;2.50;;
14550;SDS011;7362;50.956;4.184;2022-09-09T05:47:51;5.85;;;2.13;;
14550;SDS011;7362;50.956;4.184;2022-09-09T05:50:22;7.45;;;2.22;;
14550;SDS011;7362;50.956;4.184;2022-09-09T05:52:48;6.90;;;2.30;;
14550;SDS011;7362;50.956;4.184;2022-09-09T05:55:14;7.20;;;2.80;;
14550;SDS011;7362;50.956;4.184;2022-09-09T05:57:40;11.65;;;3.38;;
14550;SDS011;7362;50.956;4.184;2022-09-09T06:00:07;5.60;;;1.88;;
14550;SDS011;7362;50.956;4.184;2022-09-09T06:02:36;10.68;;;2.38;;
14550;SDS011;7362;50.956;4.184;2022-09-09T06:05:04;5.10;;;1.80;;
14550;SDS011;7362;50.956;4.184;2022-09-09T06:07:30;5.88;;;2.50;;
14550;SDS011;7362;50.956;4.184;2022-09-09T06:09:57;6.60;;;2.42;;
14550;SDS011;7362;50.956;4.184;2022-09-09T06:12:25;8.95;;;2.25;;
14550;SDS011;7362;50.956;4.184;2022-09-09T06:14:54;7.38;;;2.03;;
14550;SDS011;7362;50.956;4.184;2022-09-09T06:17:19;7.93;;;2.00;;
14550;SDS011;7362;50.956;4.184;2022-09-09T06:19:45;6.53;;;2.05;;
14550;SDS011;7362;50.956;4.184;2022-09-09T06:24:47;8.32;;;2.63;;
14550;SDS011;7362;50.956;4.184;2022-09-09T06:27:14;7.18;;;1.95;;
14550;SDS011;7362;50.956;4.184;2022-09-09T06:29:41;3.13;;;1.40;;
14550;SDS011;7362;50.956;4.184;2022-09-09T06:32:08;5.97;;;1.90;;
14550;SDS011;7362;50.956;4.184;2022-09-09T06:34:35;9.55;;;2.00;;
14550;SDS011;7362;50.956;4.184;2022-09-09T06:37:01;6.53;;;2.10;;
14550;SDS011;7362;50.956;4.184;2022-09-09T06:39:27;7.15;;;2.13;;
14550;SDS011;7362;50.956;4.184;2022-09-09T06:41:53;4.38;;;1.92;;
14550;SDS011;7362;50.956;4.184;2022-09-09T06:44:19;7.22;;;2.00;;
14550;SDS011;7362;50.956;4.184;2022-09-09T06:46:45;7.38;;;1.88;;
14550;SDS011;7362;50.956;4.184;2022-09-09T06:49:13;6.68;;;1.77;;
14550;SDS011;7362;50.956;4.184;2022-09-09T06:51:41;8.40;;;2.67;;
14550;SDS011;7362;50.956;4.184;2022-09-09T06:54:10;6.82;;;2.13;;
14550;SDS011;7362;50.956;4.184;2022-09-09T06:56:52;6.25;;;2.03;;
14550;SDS011;7362;50.956;4.184;2022-09-09T06:59:21;7.72;;;2.13;;
14550;SDS011;7362;50.956;4.184;2022-09-09T07:02:13;8.27;;;1.80;;
14550;SDS011;7362;50.956;4.184;2022-09-09T07:04:39;6.60;;;2.88;;
14550;SDS011;7362;50.956;4.184;2022-09-09T07:07:07;4.35;;;1.95;;
14550;SDS011;7362;50.956;4.184;2022-09-09T07:09:52;3.92;;;1.65;;
14550;SDS011;7362;50.956;4.184;2022-09-09T07:12:19;6.50;;;2.13;;
14550;SDS011;7362;50.956;4.184;2022-09-09T07:14:47;6.85;;;2.30;;
14550;SDS011;7362;50.956;4.184;2022-09-09T07:17:13;5.90;;;2.35;;
14550;SDS011;7362;50.956;4.184;2022-09-09T07:19:41;7.28;;;2.30;;
14550;SDS011;7362;50.956;4.184;2022-09-09T07:22:08;7.57;;;1.83;;
14550;SDS011;7362;50.956;4.184;2022-09-09T07:24:35;7.75;;;2.10;;
14550;SDS011;7362;50.956;4.184;2022-09-09T07:27:02;7.80;;;1.80;;
14550;SDS011;7362;50.956;4.184;2022-09-09T07:29:31;5.70;;;2.05;;
14550;SDS011;7362;50.956;4.184;2022-09-09T07:32:04;5.18;;;1.70;;
14550;SDS011;7362;50.956;4.184;2022-09-09T07:34:30;5.03;;;1.65;;
14550;SDS011;7362;50.956;4.184;2022-09-09T07:36:56;6.40;;;1.48;;
14550;SDS011;7362;50.956;4.184;2022-09-09T07:39:23;5.63;;;1.73;;
14550;SDS011;7362;50.956;4.184;2022-09-09T07:41:50;4.15;;;1.77;;
14550;SDS011;7362;50.956;4.184;2022-09-09T07:44:17;6.13;;;1.77;;
14550;SDS011;7362;50.956;4.184;2022-09-09T07:46:48;9.93;;;1.95;;
14550;SDS011;7362;50.956;4.184;2022-09-09T07:49:14;3.75;;;1.58;;
14550;SDS011;7362;50.956;4.184;2022-09-09T07:51:43;7.03;;;2.05;;
14550;SDS011;7362;50.956;4.184;2022-09-09T07:54:11;6.10;;;1.50;;
14550;SDS011;7362;50.956;4.184;2022-09-09T07:56:40;6.53;;;1.48;;
14550;SDS011;7362;50.956;4.184;2022-09-09T07:59:06;5.55;;;1.73;;
14550;SDS011;7362;50.956;4.184;2022-09-09T08:01:34;4.95;;;1.58;;
14550;SDS011;7362;50.956;4.184;2022-09-09T08:04:16;5.53;;;1.73;;
14550;SDS011;7362;50.956;4.184;2022-09-09T08:06:49;5.68;;;1.52;;
14550;SDS011;7362;50.956;4.184;2022-09-09T08:09:18;5.28;;;2.10;;
14550;SDS011;7362;50.956;4.184;2022-09-09T08:11:45;6.65;;;2.20;;
14550;SDS011;7362;50.956;4.184;2022-09-09T08:14:12;2.65;;;1.25;;
14550;SDS011;7362;50.956;4.184;2022-09-09T08:16:39;7.82;;;2.17;;
14550;SDS011;7362;50.956;4.184;2022-09-09T08:19:08;4.65;;;1.20;;
14550;SDS011;7362;50.956;4.184;2022-09-09T08:21:35;4.88;;;1.70;;
14550;SDS011;7362;50.956;4.184;2022-09-09T08:24:03;4.63;;;1.52;;
14550;SDS011;7362;50.956;4.184;2022-09-09T08:26:48;7.47;;;2.20;;
14550;SDS011;7362;50.956;4.184;2022-09-09T08:29:14;5.93;;;1.92;;
14550;SDS011;7362;50.956;4.184;2022-09-09T08:31:51;5.53;;;1.50;;
14550;SDS011;7362;50.956;4.184;2022-09-09T08:52:32;3.72;;;1.35;;
14550;SDS011;7362;50.956;4.184;2022-09-09T08:55:26;5.70;;;1.90;;
14550;SDS011;7362;50.956;4.184;2022-09-09T08:57:54;4.60;;;2.03;;
14550;SDS011;7362;50.956;4.184;2022-09-09T09:11:58;6.05;;;2.33;;
14550;SDS011;7362;50.956;4.184;2022-09-09T09:14:33;3.97;;;1.85;;
14550;SDS011;7362;50.956;4.184;2022-09-09T09:17:23;6.43;;;1.75;;
14550;SDS011;7362;50.956;4.184;2022-09-09T09:19:53;10.63;;;1.90;;
14550;SDS011;7362;50.956;4.184;2022-09-09T09:22:55;6.38;;;1.73;;
14550;SDS011;7362;50.956;4.184;2022-09-09T09:25:32;6.40;;;1.98;;
14550;SDS011;7362;50.956;4.184;2022-09-09T09:33:52;5.85;;;2.20;;
14550;SDS011;7362;50.956;4.184;2022-09-09T09:36:32;9.23;;;2.72;;
14550;SDS011;7362;50.956;4.184;2022-09-09T09:42:12;5.40;;;2.20;;
14550;SDS011;7362;50.956;4.184;2022-09-09T09:44:50;4.97;;;1.90;;
14550;SDS011;7362;50.956;4.184;2022-09-09T09:47:37;4.35;;;2.00;;
14550;SDS011;7362;50.956;4.184;2022-09-09T09:50:15;2.28;;;1.50;;
14550;SDS011;7362;50.956;4.184;2022-09-09T09:52:51;4.68;;;1.58;;
14550;SDS011;7362;50.956;4.184;2022-09-09T09:55:25;5.75;;;2.08;;
14550;SDS011;7362;50.956;4.184;2022-09-09T09:58:13;5.93;;;1.90;;
14550;SDS011;7362;50.956;4.184;2022-09-09T10:00:48;4.72;;;1.80;;
14550;SDS011;7362;50.956;4.184;2022-09-09T10:03:35;7.20;;;1.65;;
14550;SDS011;7362;50.956;4.184;2022-09-09T10:08:45;5.22;;;2.05;;
14550;SDS011;7362;50.956;4.184;2022-09-09T10:17:05;4.78;;;1.77;;
14550;SDS011;7362;50.956;4.184;2022-09-09T10:35:24;4.30;;;1.90;;
14550;SDS011;7362;50.956;4.184;2022-09-09T10:38:16;4.82;;;1.77;;
14550;SDS011;7362;50.956;4.184;2022-09-09T10:52:14;3.78;;;1.80;;
14550;SDS011;7362;50.956;4.184;2022-09-09T10:55:09;5.72;;;2.50;;
14550;SDS011;7362;50.956;4.184;2022-09-09T10:57:48;6.13;;;2.15;;
14550;SDS011;7362;50.956;4.184;2022-09-09T11:00:22;5.18;;;1.77;;
14550;SDS011;7362;50.956;4.184;2022-09-09T11:03:21;7.45;;;1.60;;
14550;SDS011;7362;50.956;4.184;2022-09-09T11:06:02;5.10;;;2.50;;
14550;SDS011;7362;50.956;4.184;2022-09-09T11:08:30;5.43;;;1.73;;
14550;SDS011;7362;50.956;4.184;2022-09-09T11:14:49;5.82;;;1.77;;
14550;SDS011;7362;50.956;4.184;2022-09-09T11:19:41;4.95;;;1.80;;
14550;SDS011;7362;50.956;4.184;2022-09-09T11:27:32;6.43;;;1.55;;
14550;SDS011;7362;50.956;4.184;2022-09-09T11:30:43;7.00;;;1.50;;
14550;SDS011;7362;50.956;4.184;2022-09-09T11:38:41;4.22;;;1.42;;
14550;SDS011;7362;50.956;4.184;2022-09-09T11:41:23;4.78;;;1.65;;
14550;SDS011;7362;50.956;4.184;2022-09-09T11:52:44;5.07;;;1.35;;
14550;SDS011;7362;50.956;4.184;2022-09-09T11:55:31;5.55;;;1.70;;
14550;SDS011;7362;50.956;4.184;2022-09-09T12:13:07;4.22;;;1.70;;
14550;SDS011;7362;50.956;4.184;2022-09-09T12:15:57;4.53;;;1.88;;
14550;SDS011;7362;50.956;4.184;2022-09-09T12:18:39;4.82;;;1.65;;
14550;SDS011;7362;50.956;4.184;2022-09-09T12:21:41;3.92;;;1.50;;
14550;SDS011;7362;50.956;4.184;2022-09-09T12:24:29;8.20;;;2.22;;
14550;SDS011;7362;50.956;4.184;2022-09-09T12:27:23;5.78;;;1.75;;
14550;SDS011;7362;50.956;4.184;2022-09-09T12:30:12;4.00;;;1.60;;
14550;SDS011;7362;50.956;4.184;2022-09-09T12:32:46;3.92;;;1.48;;
14550;SDS011;7362;50.956;4.184;2022-09-09T12:35:25;4.30;;;1.60;;
14550;SDS011;7362;50.956;4.184;2022-09-09T12:40:53;5.57;;;1.58;;
14550;SDS011;7362;50.956;4.184;2022-09-09T12:43:23;4.20;;;1.27;;
14550;SDS011;7362;50.956;4.184;2022-09-09T12:52:35;5.88;;;1.65;;
14550;SDS011;7362;50.956;4.184;2022-09-09T12:58:30;3.20;;;1.00;;
14550;SDS011;7362;50.956;4.184;2022-09-09T13:04:15;2.85;;;1.17;;
14550;SDS011;7362;50.956;4.184;2022-09-09T13:06:47;2.83;;;1.40;;
14550;SDS011;7362;50.956;4.184;2022-09-09T13:19:36;4.07;;;1.55;;
14550;SDS011;7362;50.956;4.184;2022-09-09T13:36:41;2.72;;;1.27;;
14550;SDS011;7362;50.956;4.184;2022-09-09T13:39:22;2.28;;;0.98;;
14550;SDS011;7362;50.956;4.184;2022-09-09T13:41:48;3.70;;;1.50;;
14550;SDS011;7362;50.956;4.184;2022-09-09T13:44:22;2.15;;;1.13;;
14550;SDS011;7362;50.956;4.184;2022-09-09T13:49:40;3.50;;;1.33;;
14550;SDS011;7362;50.956;4.184;2022-09-09T13:52:13;3.42;;;1.15;;
14550;SDS011;7362;50.956;4.184;2022-09-09T13:54:41;2.75;;;1.15;;
14550;SDS011;7362;50.956;4.184;2022-09-09T13:57:19;2.50;;;1.05;;
14550;SDS011;7362;50.956;4.184;2022-09-09T14:02:46;2.50;;;1.05;;
14550;SDS011;7362;50.956;4.184;2022-09-09T14:13:22;4.00;;;1.00;;
14550;SDS011;7362;50.956;4.184;2022-09-09T14:15:56;2.10;;;1.27;;
14550;SDS011;7362;50.956;4.184;2022-09-09T14:18:24;4.65;;;1.52;;
14550;SDS011;7362;50.956;4.184;2022-09-09T14:20:55;5.57;;;1.38;;
14550;SDS011;7362;50.956;4.184;2022-09-09T14:23:22;2.92;;;1.38;;
14550;SDS011;7362;50.956;4.184;2022-09-09T14:25:54;3.80;;;1.55;;
14550;SDS011;7362;50.956;4.184;2022-09-09T14:30:52;3.28;;;1.40;;
14550;SDS011;7362;50.956;4.184;2022-09-09T14:33:17;4.05;;;1.70;;
14550;SDS011;7362;50.956;4.184;2022-09-09T14:35:44;3.28;;;1.52;;
14550;SDS011;7362;50.956;4.184;2022-09-09T14:38:09;4.70;;;1.40;;
14550;SDS011;7362;50.956;4.184;2022-09-09T14:40:37;3.38;;;1.50;;
14550;SDS011;7362;50.956;4.184;2022-09-09T14:43:04;2.33;;;1.02;;
14550;SDS011;7362;50.956;4.184;2022-09-09T14:45:30;1.65;;;1.00;;
14550;SDS011;7362;50.956;4.184;2022-09-09T14:50:25;2.85;;;1.25;;
14550;SDS011;7362;50.956;4.184;2022-09-09T15:05:11;3.85;;;1.40;;
14550;SDS011;7362;50.956;4.184;2022-09-09T15:07:37;3.13;;;1.30;;
14550;SDS011;7362;50.956;4.184;2022-09-09T15:13:23;3.75;;;1.58;;
14550;SDS011;7362;50.956;4.184;2022-09-09T15:15:50;5.05;;;1.52;;
14550;SDS011;7362;50.956;4.184;2022-09-09T15:18:19;2.65;;;1.40;;
14550;SDS011;7362;50.956;4.184;2022-09-09T15:20:47;4.95;;;1.60;;
14550;SDS011;7362;50.956;4.184;2022-09-09T15:23:22;2.80;;;1.08;;
14550;SDS011;7362;50.956;4.184;2022-09-09T15:28:58;5.47;;;1.55;;
14550;SDS011;7362;50.956;4.184;2022-09-09T15:41:28;4.45;;;1.38;;
14550;SDS011;7362;50.956;4.184;2022-09-09T15:43:59;5.97;;;1.50;;
14550;SDS011;7362;50.956;4.184;2022-09-09T15:51:55;2.92;;;1.40;;
14550;SDS011;7362;50.956;4.184;2022-09-09T15:54:32;2.90;;;1.27;;
14550;SDS011;7362;50.956;4.184;2022-09-09T15:57:02;5.15;;;1.50;;
14550;SDS011;7362;50.956;4.184;2022-09-09T15:59:39;3.95;;;1.30;;
14550;SDS011;7362;50.956;4.184;2022-09-09T16:02:12;4.10;;;1.50;;
14550;SDS011;7362;50.956;4.184;2022-09-09T16:04:40;3.83;;;1.60;;
14550;SDS011;7362;50.956;4.184;2022-09-09T16:07:11;8.50;;;2.30;;
14550;SDS011;7362;50.956;4.184;2022-09-09T16:12:30;3.20;;;1.27;;
14550;SDS011;7362;50.956;4.184;2022-09-09T16:15:03;3.67;;;1.52;;
14550;SDS011;7362;50.956;4.184;2022-09-09T16:21:02;4.50;;;2.00;;
14550;SDS011;7362;50.956;4.184;2022-09-09T16:23:31;3.92;;;1.50;;
14550;SDS011;7362;50.956;4.184;2022-09-09T16:25:59;4.05;;;1.63;;
14550;SDS011;7362;50.956;4.184;2022-09-09T16:28:29;3.72;;;1.77;;
14550;SDS011;7362;50.956;4.184;2022-09-09T16:31:03;3.40;;;1.60;;
14550;SDS011;7362;50.956;4.184;2022-09-09T16:36:43;4.18;;;1.77;;
14550;SDS011;7362;50.956;4.184;2022-09-09T16:39:31;2.55;;;1.20;;
14550;SDS011;7362;50.956;4.184;2022-09-09T16:42:04;3.15;;;1.50;;
14550;SDS011;7362;50.956;4.184;2022-09-09T16:44:36;1.90;;;1.20;;
14550;SDS011;7362;50.956;4.184;2022-09-09T16:47:07;1.30;;;1.02;;
14550;SDS011;7362;50.956;4.184;2022-09-09T16:52:03;2.28;;;1.40;;
14550;SDS011;7362;50.956;4.184;2022-09-09T16:54:44;2.08;;;1.30;;
14550;SDS011;7362;50.956;4.184;2022-09-09T16:57:20;2.95;;;1.40;;
14550;SDS011;7362;50.956;4.184;2022-09-09T16:59:50;2.35;;;1.25;;
14550;SDS011;7362;50.956;4.184;2022-09-09T17:05:40;6.10;;;1.95;;
14550;SDS011;7362;50.956;4.184;2022-09-09T17:08:09;5.68;;;2.10;;
14550;SDS011;7362;50.956;4.184;2022-09-09T17:13:45;3.50;;;1.70;;
14550;SDS011;7362;50.956;4.184;2022-09-09T17:16:28;5.90;;;2.47;;
14550;SDS011;7362;50.956;4.184;2022-09-09T17:19:10;2.88;;;1.80;;
14550;SDS011;7362;50.956;4.184;2022-09-09T17:21:38;4.88;;;2.00;;
14550;SDS011;7362;50.956;4.184;2022-09-09T17:24:07;7.07;;;2.20;;
14550;SDS011;7362;50.956;4.184;2022-09-09T17:26:33;3.38;;;1.70;;
14550;SDS011;7362;50.956;4.184;2022-09-09T17:29:00;5.28;;;1.83;;
14550;SDS011;7362;50.956;4.184;2022-09-09T17:31:31;6.38;;;1.85;;
14550;SDS011;7362;50.956;4.184;2022-09-09T17:33:59;3.33;;;2.05;;
14550;SDS011;7362;50.956;4.184;2022-09-09T17:36:30;6.57;;;2.50;;
14550;SDS011;7362;50.956;4.184;2022-09-09T17:38:58;4.85;;;2.05;;
14550;SDS011;7362;50.956;4.184;2022-09-09T17:41:30;6.28;;;1.73;;
14550;SDS011;7362;50.956;4.184;2022-09-09T17:44:02;4.93;;;2.13;;
14550;SDS011;7362;50.956;4.184;2022-09-09T17:46:39;3.90;;;1.65;;
14550;SDS011;7362;50.956;4.184;2022-09-09T17:49:10;4.70;;;2.03;;
14550;SDS011;7362;50.956;4.184;2022-09-09T17:51:41;5.60;;;2.03;;
14550;SDS011;7362;50.956;4.184;2022-09-09T17:54:13;4.72;;;1.75;;
14550;SDS011;7362;50.956;4.184;2022-09-09T17:56:41;4.75;;;1.45;;
14550;SDS011;7362;50.956;4.184;2022-09-09T17:59:09;4.05;;;1.63;;
14550;SDS011;7362;50.956;4.184;2022-09-09T18:01:39;4.65;;;1.60;;
14550;SDS011;7362;50.956;4.184;2022-09-09T18:04:09;2.67;;;1.45;;
14550;SDS011;7362;50.956;4.184;2022-09-09T18:06:39;5.38;;;1.95;;
14550;SDS011;7362;50.956;4.184;2022-09-09T18:09:12;3.38;;;1.67;;
14550;SDS011;7362;50.956;4.184;2022-09-09T18:11:50;5.07;;;1.52;;
14550;SDS011;7362;50.956;4.184;2022-09-09T18:14:21;5.63;;;1.90;;
14550;SDS011;7362;50.956;4.184;2022-09-09T18:16:53;4.78;;;1.77;;
14550;SDS011;7362;50.956;4.184;2022-09-09T18:19:23;7.75;;;2.45;;
14550;SDS011;7362;50.956;4.184;2022-09-09T18:21:51;5.97;;;2.10;;
14550;SDS011;7362;50.956;4.184;2022-09-09T18:24:20;6.10;;;2.45;;
14550;SDS011;7362;50.956;4.184;2022-09-09T18:26:47;5.68;;;2.05;;
14550;SDS011;7362;50.956;4.184;2022-09-09T18:29:15;6.30;;;2.88;;
14550;SDS011;7362;50.956;4.184;2022-09-09T18:32:03;5.07;;;2.80;;
14550;SDS011;7362;50.956;4.184;2022-09-09T18:34:31;6.00;;;2.08;;
14550;SDS011;7362;50.956;4.184;2022-09-09T18:36:58;10.93;;;2.05;;
14550;SDS011;7362;50.956;4.184;2022-09-09T18:39:25;5.68;;;2.10;;
14550;SDS011;7362;50.956;4.184;2022-09-09T18:41:55;6.50;;;2.08;;
14550;SDS011;7362;50.956;4.184;2022-09-09T18:44:24;7.88;;;2.38;;
14550;SDS011;7362;50.956;4.184;2022-09-09T18:46:55;5.38;;;2.17;;
14550;SDS011;7362;50.956;4.184;2022-09-09T18:49:27;6.85;;;2.95;;
14550;SDS011;7362;50.956;4.184;2022-09-09T18:51:56;7.00;;;3.28;;
14550;SDS011;7362;50.956;4.184;2022-09-09T18:54:30;5.78;;;2.40;;
14550;SDS011;7362;50.956;4.184;2022-09-09T18:57:00;6.50;;;2.03;;
14550;SDS011;7362;50.956;4.184;2022-09-09T18:59:26;7.45;;;2.28;;
14550;SDS011;7362;50.956;4.184;2022-09-09T19:01:52;6.97;;;2.42;;
14550;SDS011;7362;50.956;4.184;2022-09-09T19:04:19;5.68;;;2.08;;
14550;SDS011;7362;50.956;4.184;2022-09-09T19:06:48;4.70;;;1.92;;
14550;SDS011;7362;50.956;4.184;2022-09-09T19:09:21;5.93;;;2.00;;
14550;SDS011;7362;50.956;4.184;2022-09-09T19:11:50;7.78;;;2.63;;
14550;SDS011;7362;50.956;4.184;2022-09-09T19:14:16;6.47;;;2.33;;
14550;SDS011;7362;50.956;4.184;2022-09-09T19:16:42;5.18;;;2.15;;
14550;SDS011;7362;50.956;4.184;2022-09-09T19:19:14;8.60;;;2.60;;
14550;SDS011;7362;50.956;4.184;2022-09-09T19:21:48;4.95;;;1.92;;
14550;SDS011;7362;50.956;4.184;2022-09-09T19:24:22;7.00;;;1.70;;
14550;SDS011;7362;50.956;4.184;2022-09-09T19:27:06;5.07;;;1.70;;
14550;SDS011;7362;50.956;4.184;2022-09-09T19:29:40;4.65;;;1.83;;
14550;SDS011;7362;50.956;4.184;2022-09-09T19:32:09;6.38;;;2.38;;
14550;SDS011;7362;50.956;4.184;2022-09-09T19:34:38;5.00;;;2.00;;
14550;SDS011;7362;50.956;4.184;2022-09-09T19:37:06;6.85;;;2.17;;
14550;SDS011;7362;50.956;4.184;2022-09-09T19:39:32;7.22;;;1.63;;
14550;SDS011;7362;50.956;4.184;2022-09-09T19:42:04;7.28;;;2.13;;
14550;SDS011;7362;50.956;4.184;2022-09-09T19:44:33;4.25;;;1.92;;
14550;SDS011;7362;50.956;4.184;2022-09-09T19:47:04;3.97;;;1.30;;
14550;SDS011;7362;50.956;4.184;2022-09-09T19:49:31;2.50;;;1.55;;
14550;SDS011;7362;50.956;4.184;2022-09-09T19:51:58;1.77;;;1.13;;
14550;SDS011;7362;50.956;4.184;2022-09-09T19:54:26;5.78;;;2.55;;
14550;SDS011;7362;50.956;4.184;2022-09-09T19:56:52;4.07;;;1.77;;
14550;SDS011;7362;50.956;4.184;2022-09-09T19:59:19;7.20;;;1.83;;
14550;SDS011;7362;50.956;4.184;2022-09-09T20:01:51;2.75;;;1.20;;
14550;SDS011;7362;50.956;4.184;2022-09-09T20:04:17;4.03;;;1.30;;
14550;SDS011;7362;50.956;4.184;2022-09-09T20:06:44;5.07;;;1.38;;
14550;SDS011;7362;50.956;4.184;2022-09-09T20:09:12;4.15;;;1.48;;
14550;SDS011;7362;50.956;4.184;2022-09-09T20:11:40;5.03;;;1.52;;
14550;SDS011;7362;50.956;4.184;2022-09-09T20:14:09;3.63;;;1.70;;
14550;SDS011;7362;50.956;4.184;2022-09-09T20:16:37;2.50;;;1.50;;
14550;SDS011;7362;50.956;4.184;2022-09-09T20:19:05;6.50;;;1.92;;
14550;SDS011;7362;50.956;4.184;2022-09-09T20:21:44;4.28;;;1.85;;
14550;SDS011;7362;50.956;4.184;2022-09-09T20:24:16;9.45;;;2.47;;
14550;SDS011;7362;50.956;4.184;2022-09-09T20:26:50;7.38;;;1.85;;
14550;SDS011;7362;50.956;4.184;2022-09-09T20:29:17;6.65;;;2.38;;
14550;SDS011;7362;50.956;4.184;2022-09-09T20:31:45;8.00;;;2.00;;
14550;SDS011;7362;50.956;4.184;2022-09-09T20:34:13;4.45;;;1.60;;
14550;SDS011;7362;50.956;4.184;2022-09-09T20:36:45;6.20;;;2.08;;
14550;SDS011;7362;50.956;4.184;2022-09-09T20:39:16;5.63;;;2.22;;
14550;SDS011;7362;50.956;4.184;2022-09-09T20:41:48;7.03;;;2.30;;
14550;SDS011;7362;50.956;4.184;2022-09-09T20:44:16;7.30;;;2.17;;
14550;SDS011;7362;50.956;4.184;2022-09-09T20:47:01;7.90;;;2.08;;
14550;SDS011;7362;50.956;4.184;2022-09-09T20:49:32;4.95;;;1.50;;
14550;SDS011;7362;50.956;4.184;2022-09-09T20:52:04;4.50;;;2.15;;
14550;SDS011;7362;50.956;4.184;2022-09-09T20:54:30;5.70;;;2.08;;